createdAt,value
2023-01-23T00:03:00.131Z,13.6
2023-01-23T00:06:02.109Z,13.8
2023-01-23T00:09:04.052Z,13.9
2023-01-23T00:12:06.030Z,18.1
2023-01-23T00:15:07.947Z,16.6
2023-01-23T00:18:09.915Z,13
2023-01-23T00:21:11.929Z,13.8
2023-01-23T00:24:13.931Z,14.5
2023-01-23T00:27:15.899Z,12.1
2023-01-23T00:30:18.121Z,13.3
2023-01-23T00:33:19.858Z,12.6
2023-01-23T00:36:21.787Z,15.4
2023-01-23T00:39:23.809Z,13.2
2023-01-23T00:42:25.714Z,11.6
2023-01-23T00:45:27.669Z,11.2
2023-01-23T00:48:29.634Z,12.8
2023-01-23T00:51:31.642Z,13.6
2023-01-23T00:54:33.591Z,12.3
2023-01-23T00:57:35.527Z,15
2023-01-23T01:00:37.495Z,15.1
2023-01-23T01:03:39.472Z,12.9
2023-01-23T01:06:41.444Z,13.4
2023-01-23T01:09:43.401Z,12.2
2023-01-23T01:12:45.333Z,13.7
2023-01-23T01:15:47.394Z,13.5
2023-01-23T01:18:49.256Z,11.4
2023-01-23T01:21:51.233Z,11.7
2023-01-23T01:24:53.188Z,13.3
2023-01-23T01:27:55.155Z,13.4
2023-01-23T01:30:57.318Z,14.2
2023-01-23T01:33:59.090Z,14.2
2023-01-23T01:37:01.055Z,15.5
2023-01-23T01:40:03.050Z,13.8
2023-01-23T01:43:04.999Z,13.4
2023-01-23T01:46:06.980Z,15.8
2023-01-23T01:49:08.968Z,13.6
2023-01-23T01:52:10.921Z,17.8
2023-01-23T01:55:12.842Z,12.9
2023-01-23T01:58:14.801Z,16.6
2023-01-23T02:01:16.817Z,14.2
2023-01-23T02:04:18.773Z,18.4
2023-01-23T02:07:20.717Z,15.1
2023-01-23T02:10:22.661Z,16.6
2023-01-23T02:13:24.623Z,17.6
2023-01-23T02:16:26.650Z,15
2023-01-23T02:19:28.570Z,18.4
2023-01-23T02:22:30.542Z,15.4
2023-01-23T02:25:32.537Z,17.7
2023-01-23T02:28:34.529Z,16.4
2023-01-23T02:31:36.639Z,19.3
2023-01-23T02:34:38.470Z,19.9
2023-01-23T02:37:40.406Z,18.9
2023-01-23T02:40:42.350Z,16.1
2023-01-23T02:43:44.310Z,14.5
2023-01-23T02:46:46.348Z,16.1
2023-01-23T02:49:48.260Z,17.3
2023-01-23T02:52:50.196Z,18.6
2023-01-23T02:55:52.145Z,18.3
2023-01-23T02:58:54.199Z,18.7
2023-01-23T03:01:56.150Z,22.4
2023-01-23T03:04:58.084Z,18
2023-01-23T03:08:00.036Z,19
2023-01-23T03:11:01.996Z,19.3
2023-01-23T03:14:03.940Z,18.5
2023-01-23T03:17:05.956Z,20.4
2023-01-23T03:20:07.924Z,18.4
2023-01-23T03:23:09.846Z,16.8
2023-01-23T03:26:11.807Z,14.1
2023-01-23T03:29:13.775Z,16.6
2023-01-23T03:32:15.746Z,16.5
2023-01-23T03:35:17.708Z,17.6
2023-01-23T03:38:19.706Z,15.3
2023-01-23T03:41:21.648Z,17.7
2023-01-23T03:44:23.626Z,18.6
2023-01-23T03:47:25.567Z,18.2
2023-01-23T03:50:27.546Z,16.7
2023-01-23T03:53:29.502Z,17.6
2023-01-23T03:56:31.468Z,15.2
2023-01-23T03:59:33.484Z,18
2023-01-23T04:02:35.464Z,19.9
2023-01-23T04:05:37.370Z,16.6
2023-01-23T04:08:39.354Z,17.1
2023-01-23T04:11:41.310Z,17.7
2023-01-23T04:14:43.289Z,17.2
2023-01-23T04:17:45.244Z,18.3
2023-01-23T04:20:47.218Z,15.5
2023-01-23T04:23:49.150Z,16.7
2023-01-23T04:26:51.344Z,16.2
2023-01-23T04:29:53.118Z,15.4
2023-01-23T04:32:55.070Z,17.4
2023-01-23T04:35:57.031Z,15.9
2023-01-23T04:38:59.012Z,15.6
2023-01-23T04:42:00.961Z,16.2
2023-01-23T04:45:02.941Z,16.9
2023-01-23T04:48:04.949Z,15
2023-01-23T04:51:07.042Z,15.3
2023-01-23T04:54:08.832Z,15.8
2023-01-23T04:57:10.809Z,13.8
2023-01-23T05:00:12.857Z,16
2023-01-23T05:03:14.764Z,14.7
2023-01-23T05:06:16.706Z,16.2
2023-01-23T05:09:18.682Z,14.3
2023-01-23T05:12:20.624Z,13.6
2023-01-23T05:15:22.562Z,16.1
2023-01-23T05:18:24.538Z,12.9
2023-01-23T05:21:26.502Z,13.4
2023-01-23T05:24:28.511Z,12.7
2023-01-23T05:27:30.453Z,11.3
2023-01-23T05:30:32.511Z,14.1
2023-01-23T05:33:34.420Z,12.4
2023-01-23T05:36:36.374Z,11.3
2023-01-23T05:39:38.335Z,13.2
2023-01-23T05:42:40.305Z,10.9
2023-01-23T05:45:42.295Z,10.6
2023-01-23T05:48:44.223Z,11.4
2023-01-23T05:51:46.150Z,11.5
2023-01-23T05:54:48.114Z,10.8
2023-01-23T05:57:50.068Z,10.9
2023-01-23T06:00:52.023Z,10
2023-01-23T06:03:54.123Z,11.1
2023-01-23T06:06:55.959Z,10.4
2023-01-23T06:09:57.919Z,9.6
2023-01-23T06:12:59.918Z,10.3
2023-01-23T06:16:01.916Z,13.3
2023-01-23T06:19:03.824Z,10.5
2023-01-23T06:22:05.824Z,8.7
2023-01-23T06:25:07.776Z,10.3
2023-01-23T06:28:09.780Z,10.3
2023-01-23T06:31:11.899Z,9.8
2023-01-23T06:34:13.688Z,10.4
2023-01-23T06:37:15.663Z,10.8
2023-01-23T06:40:17.802Z,11.4
2023-01-23T06:43:19.545Z,9.8
2023-01-23T06:46:21.572Z,10.8
2023-01-23T06:49:23.483Z,10.2
2023-01-23T06:52:25.440Z,9.4
2023-01-23T06:55:27.410Z,9.6
2023-01-23T06:58:29.379Z,9.3
2023-01-23T07:01:31.369Z,9.3
2023-01-23T07:04:33.310Z,10
2023-01-23T07:07:35.322Z,13
2023-01-23T07:10:37.287Z,12.5
2023-01-23T07:13:39.296Z,9.8
2023-01-23T07:16:41.205Z,10.5
2023-01-23T07:19:43.174Z,9.2
2023-01-23T07:22:45.161Z,9.1
2023-01-23T07:25:47.095Z,11.1
2023-01-23T07:28:49.113Z,12.3
2023-01-23T07:31:51.083Z,10.1
2023-01-23T07:34:53.025Z,10.6
2023-01-23T07:37:55.000Z,9.3
2023-01-23T07:40:56.940Z,10.7
2023-01-23T07:43:58.907Z,8.6
2023-01-23T07:47:00.885Z,7.8
2023-01-23T07:50:02.845Z,9.2
2023-01-23T07:53:04.849Z,10.2
2023-01-23T07:56:06.776Z,10.8
2023-01-23T07:59:08.745Z,10.6
2023-01-23T08:02:10.867Z,11.5
2023-01-23T08:05:12.702Z,7.6
2023-01-23T08:08:14.654Z,9.3
2023-01-23T08:11:16.667Z,9
2023-01-23T08:14:18.621Z,12.2
2023-01-23T08:17:20.559Z,9.6
2023-01-23T08:20:22.672Z,10.6
2023-01-23T08:23:24.498Z,8.5
2023-01-23T08:26:26.488Z,11.2
2023-01-23T08:29:28.424Z,9.8
2023-01-23T08:32:30.401Z,9.1
2023-01-23T08:35:32.342Z,8.9
2023-01-23T08:38:34.347Z,8.2
2023-01-23T08:41:36.275Z,9.6
2023-01-23T08:44:38.257Z,10.4
2023-01-23T08:47:40.210Z,10
2023-01-23T08:50:42.189Z,11
2023-01-23T08:53:44.128Z,8.1
2023-01-23T08:56:46.607Z,8.7
2023-01-23T08:59:48.088Z,8.5
2023-01-23T09:02:50.059Z,11
2023-01-23T09:05:51.970Z,8.8
2023-01-23T09:08:53.939Z,10.2
2023-01-23T09:11:55.918Z,12.1
2023-01-23T09:14:57.882Z,10.2
2023-01-23T09:17:59.846Z,11
2023-01-23T09:21:01.840Z,9.9
2023-01-23T09:24:03.777Z,9.2
2023-01-23T09:27:05.742Z,11.3
2023-01-23T09:30:07.725Z,10.5
2023-01-23T09:33:09.659Z,12.2
2023-01-23T09:36:11.637Z,9.6
2023-01-23T09:39:13.625Z,14.3
2023-01-23T09:42:15.562Z,11.2
2023-01-23T09:45:17.526Z,12.8
2023-01-23T09:48:19.497Z,11.4
2023-01-23T09:51:21.681Z,10.3
2023-01-23T09:54:23.413Z,10.8
2023-01-23T09:57:25.375Z,9.2
2023-01-23T10:00:27.355Z,10.3
2023-01-23T10:03:29.332Z,11.9
2023-01-23T10:06:31.299Z,10.7
2023-01-23T10:09:33.285Z,12.3
2023-01-23T10:12:35.238Z,11
2023-01-23T10:15:37.193Z,11.9
2023-01-23T10:18:39.187Z,9.7
2023-01-23T10:21:41.166Z,13.1
2023-01-23T10:24:45.346Z,9.6
2023-01-23T10:27:45.096Z,8.4
2023-01-23T10:30:47.159Z,10.4
2023-01-23T10:33:49.015Z,11.6
2023-01-23T10:36:54.609Z,11.8
2023-01-23T10:39:52.987Z,11.8
2023-01-23T10:42:54.917Z,11.9
2023-01-23T10:45:56.917Z,11
2023-01-23T10:48:58.853Z,11.6
2023-01-23T10:52:00.842Z,10.1
2023-01-23T10:55:02.800Z,11.7
2023-01-23T10:58:04.754Z,10.3
2023-01-23T11:01:06.819Z,9.2
2023-01-23T11:04:08.731Z,10.1
2023-01-23T11:07:10.683Z,9.7
2023-01-23T11:10:12.618Z,11.5
2023-01-23T11:13:14.627Z,9.9
2023-01-23T11:16:16.637Z,9.8
2023-01-23T11:19:18.544Z,12.4
2023-01-23T11:22:20.467Z,9.7
2023-01-23T11:25:22.463Z,12.8
2023-01-23T11:28:24.436Z,8.9
2023-01-23T11:31:26.487Z,7.9
2023-01-23T11:34:28.338Z,7.4
2023-01-23T11:37:30.325Z,9.1
2023-01-23T11:40:32.312Z,9.9
2023-01-23T11:43:34.270Z,11.9
2023-01-23T11:46:36.365Z,7.6
2023-01-23T11:49:38.273Z,7.2
2023-01-23T11:52:40.182Z,7.8
2023-01-23T11:55:42.232Z,7.4
2023-01-23T11:58:49.673Z,9.2
2023-01-23T12:01:52.092Z,8.2
2023-01-23T12:04:48.045Z,7.7
2023-01-23T12:07:50.027Z,8.4
2023-01-23T12:10:51.986Z,8.3
2023-01-23T12:13:54.733Z,8.2
2023-01-23T12:16:55.869Z,8.4
2023-01-23T12:19:57.897Z,9.7
2023-01-23T12:22:59.859Z,7
2023-01-23T12:26:01.846Z,8.6
2023-01-23T12:29:03.817Z,7.3
2023-01-23T12:32:05.901Z,10.3
2023-01-23T12:35:07.799Z,8.9
2023-01-23T12:38:09.788Z,9.5
2023-01-23T12:41:11.759Z,9.4
2023-01-23T12:44:13.715Z,8.5
2023-01-23T12:47:15.659Z,10.6
2023-01-23T12:50:17.673Z,11.8
2023-01-23T12:53:19.618Z,9.3
2023-01-23T12:56:21.569Z,11.7
2023-01-23T12:59:23.525Z,9.7
2023-01-23T13:02:25.783Z,12.3
2023-01-23T13:05:27.562Z,8.6
2023-01-23T13:08:31.537Z,10.7
2023-01-23T13:11:31.478Z,12.2
2023-01-23T13:14:47.600Z,9.9
2023-01-23T13:17:35.409Z,10.5
2023-01-23T13:20:37.430Z,9.5
2023-01-23T13:23:39.385Z,8
2023-01-23T13:26:41.339Z,14.5
2023-01-23T13:29:43.288Z,10.2
2023-01-23T13:32:45.259Z,10
2023-01-23T13:35:47.240Z,9.5
2023-01-23T13:38:49.174Z,11.3
2023-01-23T13:41:51.140Z,11
2023-01-23T13:44:54.505Z,11.3
2023-01-23T14:21:18.624Z,10.7
2023-01-23T14:24:18.688Z,10.7
2023-01-23T14:27:21.876Z,8.8
2023-01-23T14:30:22.589Z,9.3
2023-01-23T14:33:24.572Z,9
2023-01-23T14:36:26.526Z,11.9
2023-01-23T14:39:28.472Z,11.5
2023-01-23T14:42:30.492Z,12.9
2023-01-23T14:45:33.396Z,9.5
2023-01-23T14:48:34.384Z,11.2
2023-01-23T14:51:36.347Z,9.7
2023-01-23T14:54:39.660Z,12.6
2023-01-23T14:57:40.335Z,11.9
2023-01-23T15:00:42.268Z,11.6
2023-01-23T15:03:44.231Z,11.3
2023-01-23T15:06:46.180Z,12.8
2023-01-23T15:09:48.189Z,13.3
2023-01-23T15:12:50.154Z,13.2
2023-01-23T15:15:52.133Z,13.7
2023-01-23T15:18:54.063Z,14.4
2023-01-23T15:21:56.007Z,11.9
2023-01-23T15:24:57.986Z,14.1
2023-01-23T15:27:59.966Z,14.4
2023-01-23T15:31:01.988Z,14.7
2023-01-23T15:34:03.864Z,14.3
2023-01-23T15:37:05.808Z,10.9
2023-01-23T15:40:07.837Z,12.4
2023-01-23T15:43:09.788Z,13
2023-01-23T15:46:11.774Z,11.8
2023-01-23T15:49:24.722Z,15.2
2023-01-23T15:52:15.649Z,14.4
2023-01-23T15:55:17.577Z,13
2023-01-23T15:58:19.628Z,15.4
2023-01-23T16:01:21.551Z,13
2023-01-23T16:04:23.494Z,13.4
2023-01-23T16:07:25.440Z,12.5
2023-01-23T16:10:27.438Z,14.4
2023-01-23T16:13:29.424Z,12.7
2023-01-23T16:16:31.452Z,12.9
2023-01-23T16:19:33.333Z,13.8
2023-01-23T16:22:35.298Z,13.4
2023-01-23T16:25:43.916Z,13.6
2023-01-23T16:28:39.219Z,12.6
2023-01-23T16:31:41.266Z,14.5
2023-01-23T16:34:43.185Z,15
2023-01-23T16:37:45.145Z,14.3
2023-01-23T16:40:47.108Z,14.1
2023-01-23T16:43:49.053Z,12.6
2023-01-23T16:46:51.106Z,13.8
2023-01-23T16:49:54.118Z,12.7
2023-01-23T16:52:54.955Z,13.9
2023-01-23T16:55:56.907Z,13.6
2023-01-23T16:58:58.897Z,10.9
2023-01-23T17:02:00.860Z,13.7
2023-01-23T17:05:02.824Z,13.6
2023-01-23T17:08:04.820Z,14.2
2023-01-23T17:11:06.795Z,14.3
2023-01-23T17:14:08.850Z,14.7
2023-01-23T17:17:10.856Z,12.1
2023-01-23T17:20:12.795Z,12.2
2023-01-23T17:23:14.743Z,15.9
2023-01-23T17:26:16.695Z,14.9
2023-01-23T17:29:18.688Z,16.8
2023-01-23T17:32:20.678Z,13.7
2023-01-23T17:35:23.129Z,15.8
2023-01-23T17:38:24.587Z,14.3
2023-01-23T17:41:26.564Z,17.3
2023-01-23T17:44:28.504Z,17.4
2023-01-23T17:47:30.711Z,15.6
2023-01-23T17:50:32.682Z,17
2023-01-23T17:53:34.676Z,17
2023-01-23T17:56:36.641Z,16.4
2023-01-23T17:59:38.588Z,15.3
2023-01-23T18:02:40.634Z,16.4
2023-01-23T18:05:42.486Z,14.9
2023-01-23T18:08:44.486Z,16.3
2023-01-23T18:11:48.290Z,16.5
2023-01-23T18:14:48.404Z,19.4
2023-01-23T18:17:50.360Z,16.5
2023-01-23T18:20:52.326Z,16.6
2023-01-23T18:23:54.346Z,17.4
2023-01-23T18:26:56.258Z,15.8
2023-01-23T18:29:58.219Z,15
2023-01-23T18:33:00.171Z,16.5
2023-01-23T18:36:02.144Z,16.8
2023-01-23T18:39:04.330Z,17.5
2023-01-23T18:42:06.187Z,18.8
2023-01-23T18:45:08.132Z,17.6
2023-01-23T18:48:23.593Z,17.4
2023-01-23T18:51:12.084Z,19
2023-01-23T18:54:14.073Z,18
2023-01-23T18:57:15.973Z,18.4
2023-01-23T19:00:17.987Z,16.6
2023-01-23T19:03:20.053Z,20.4
2023-01-23T19:06:21.964Z,19.7
2023-01-23T19:09:23.907Z,17.7
2023-01-23T19:12:26.111Z,19.8
2023-01-23T19:15:27.820Z,18.1
2023-01-23T19:18:39.639Z,16.1
2023-01-23T19:21:31.928Z,17.1
2023-01-23T19:24:33.871Z,18
2023-01-23T19:27:35.843Z,20.7
2023-01-23T19:30:37.825Z,18.7
2023-01-23T19:33:39.758Z,15.7
2023-01-23T19:36:41.724Z,16.8
2023-01-23T19:39:43.717Z,20.6
2023-01-23T19:42:52.698Z,23.9
2023-01-23T19:45:47.703Z,21.1
2023-01-23T19:48:49.662Z,21.5
2023-01-23T19:51:51.669Z,20.3
2023-01-23T19:54:53.629Z,22.1
2023-01-23T19:57:55.616Z,20.7
2023-01-23T20:00:57.667Z,20.3
2023-01-23T20:03:59.551Z,24.2
2023-01-23T20:07:01.515Z,22.9
2023-01-23T20:10:03.471Z,22
2023-01-23T20:13:05.459Z,23.6
2023-01-23T20:16:07.427Z,23.4
2023-01-23T20:19:09.440Z,22.5
2023-01-23T20:22:11.339Z,23.3
2023-01-23T20:25:13.335Z,23
2023-01-23T20:28:15.246Z,23.7
2023-01-23T20:31:20.047Z,23.5
2023-01-23T20:34:21.925Z,22.1
2023-01-23T20:37:23.916Z,26.4
2023-01-23T20:40:26.025Z,27.2
2023-01-23T20:43:27.961Z,27.2
2023-01-23T20:46:29.979Z,21.7
2023-01-23T20:49:31.863Z,23.2
2023-01-23T20:52:33.843Z,21.7
2023-01-23T20:55:35.836Z,23
2023-01-23T20:58:37.754Z,22.5
2023-01-23T21:01:39.763Z,24
2023-01-23T21:04:41.706Z,23.2
2023-01-23T21:07:43.696Z,25.5
2023-01-23T21:10:45.637Z,20
2023-01-23T21:13:47.622Z,19.8
2023-01-23T21:16:49.560Z,23.6
2023-01-23T21:19:51.498Z,22.1
2023-01-23T21:22:53.455Z,20.1
2023-01-23T21:25:55.435Z,23.2
2023-01-23T21:28:57.404Z,22.7
2023-01-23T21:31:59.401Z,21.8
2023-01-23T21:35:01.335Z,24
2023-01-23T21:38:03.320Z,21.4
2023-01-23T21:41:05.301Z,20.5
2023-01-23T21:44:07.220Z,24.1
2023-01-23T21:47:09.181Z,20.6
2023-01-23T21:50:11.143Z,22.2
2023-01-23T21:53:13.140Z,20.9
2023-01-23T21:56:15.100Z,24.2
2023-01-23T21:59:17.102Z,23.3
2023-01-23T22:02:19.005Z,22.2
2023-01-23T22:05:21.189Z,25.4
2023-01-23T22:08:22.987Z,23.9
2023-01-23T22:11:24.983Z,24
2023-01-23T22:14:26.911Z,23.6
2023-01-23T22:17:28.890Z,24
2023-01-23T22:20:30.851Z,20
2023-01-23T22:23:32.810Z,21.1
2023-01-23T22:26:34.777Z,21.4
2023-01-23T22:29:36.746Z,22.5
2023-01-23T22:32:38.685Z,23.5
2023-01-23T22:35:40.653Z,21.6
2023-01-23T22:38:42.616Z,20.6
2023-01-23T22:41:44.606Z,23.3
2023-01-23T22:44:46.567Z,24.1
2023-01-23T22:47:48.505Z,20.3
2023-01-23T22:50:50.447Z,22.6
2023-01-23T22:53:52.472Z,20.6
2023-01-23T22:56:54.390Z,20.6
2023-01-23T22:59:56.343Z,19.2
2023-01-23T23:02:58.315Z,21.5
2023-01-23T23:06:00.291Z,22.7
2023-01-23T23:09:02.264Z,22.4
2023-01-23T23:12:04.235Z,21.4
2023-01-23T23:15:06.205Z,23.8
2023-01-23T23:18:08.143Z,21.6
2023-01-23T23:21:10.117Z,23.6
2023-01-23T23:24:12.181Z,21.1
2023-01-23T23:27:14.077Z,22.5
2023-01-23T23:30:16.052Z,26.7
2023-01-23T23:33:18.012Z,22.4
2023-01-23T23:36:19.955Z,19.9
2023-01-23T23:39:21.949Z,24.4
2023-01-23T23:42:23.876Z,20.8
2023-01-23T23:45:25.886Z,24.9
2023-01-23T23:48:27.804Z,22.3
2023-01-23T23:51:29.753Z,20.7
2023-01-23T23:54:31.738Z,25.7
2023-01-23T23:57:33.697Z,25.8
